Latest Weather Observations for Kununurra Airport

IDW60801

Issued at 1:04 pm WST Sunday 26 February 2017 (issued every 30 minutes, with the page automatically refreshed every 10 minutes)

About weather observations | Map of weather stations | Latest weather observations for WA | Other Formats
Station Details ID: 002056 Name: KUNUNURRA AERO Lat: -15.78 Lon: 128.71 Height: 44.0 m
Data from the previous 72 hours. | See also: Recent months at Kununurra Airport
Date/Time
WST
Temp
°C
App
Temp
°C
Dew
Point
°C
Rel
Hum
%
Delta-T
°C
Wind Press
QNH
hPa
Press
MSL
hPa
Rain since
9am
mm
Dir  Spd
km/h
Gust
km/h
Spd
kts
Gust
kts
26/01:00pm 34.7 39.8 24.9 56 7.0 ESE 7 13 4 7 1007.4 1007.1 0.0
26/12:30pm 34.0 38.2 23.4 54 7.4 SSE 7 13 4 7 1007.8 1007.5 0.0
26/12:00pm 33.8 38.2 24.4 58 6.6 SE 9 15 5 8 1008.2 1007.9 0.0
26/11:30am 32.9 36.5 23.8 58 6.3 S 11 15 6 8 1008.5 1008.2 0.0
26/11:00am 33.2 37.9 24.9 61 5.9 SE 9 15 5 8 1008.9 1008.6 0.0
26/10:30am 32.7 37.3 24.2 61 6.0 N 7 17 4 9 1009.2 1008.9 0.0
26/10:00am 32.5 37.0 23.7 59 6.1 SSE 6 13 3 7 1009.5 1009.2 0.0
26/09:30am 31.0 35.7 23.9 66 4.9 W 6 9 3 5 1009.5 1009.2 0.0
26/09:00am 30.4 35.1 24.3 70 4.3 WSW 7 13 4 7 1009.7 1009.4 31.4
26/08:42am 29.9 35.0 25.6 78 3.0 WSW 9 13 5 7 1009.6 1009.3 31.4
26/08:30am 29.4 34.0 24.7 76 3.3 SW 9 15 5 8 1009.7 1009.4 31.4
26/08:23am 29.0 33.9 24.6 77 3.1 SW 7 15 4 8 1009.7 1009.4 31.4
26/08:00am 28.5 33.6 25.5 84 2.1 WSW 9 13 5 7 1009.9 1009.6 31.4
26/07:30am 27.5 33.2 25.9 91 1.1 E 7 9 4 5 1011.0 1010.7 31.4
26/07:00am 26.2 31.1 25.2 94 0.7 ESE 9 15 5 8 1011.4 1011.1 31.4
26/06:30am 25.9 31.6 25.0 95 0.6 SSE 4 6 2 3 1010.6 1010.3 31.4
26/06:28am 25.9 31.3 25.2 96 0.5 S 6 6 3 3 1010.6 1010.3 31.4
26/06:01am 24.7 30.7 24.2 97 0.3 CALM 0 0 0 0 1010.1 1009.8 31.4
26/06:00am 24.7 30.7 24.2 97 0.3 CALM 0 0 0 0 1010.1 1009.8 31.4
26/05:30am 24.6 29.3 23.9 96 0.5 ESE 6 7 3 4 1009.8 1009.5 31.4
26/05:20am 24.8 29.6 24.1 96 0.5 S 6 7 3 4 1009.7 1009.4 31.4
26/05:00am 24.5 29.5 23.8 96 0.5 SW 4 6 2 3 1009.5 1009.2 31.4
26/04:56am 24.5 29.1 23.8 96 0.5 SW 6 7 3 4 1009.5 1009.2 31.4
26/04:30am 24.5 29.9 23.8 96 0.5 SW 2 6 1 3 1009.5 1009.2 31.4
26/04:09am 24.7 29.4 24.0 96 0.5 SSW 6 9 3 5 1009.1 1008.8 31.4
26/04:04am 24.7 29.4 24.0 96 0.5 SW 6 9 3 5 1009.1 1008.8 31.4
26/04:00am 24.7 30.2 24.0 96 0.5 SSW 2 9 1 5 1009.1 1008.8 31.4
26/03:41am 25.0 30.8 24.0 94 0.7 CALM 0 0 0 0 1009.0 1008.7 31.4
26/03:30am 25.2 31.2 24.2 94 0.7 CALM 0 4 0 2 1008.9 1008.6 31.4
26/03:10am 25.4 30.2 24.2 93 0.8 SSW 6 9 3 5 1009.1 1008.8 31.4
26/03:00am 25.3 30.2 24.3 94 0.7 SSW 6 7 3 4 1009.1 1008.8 31.4
26/02:58am 25.2 30.0 24.2 94 0.7 SSW 6 7 3 4 1009.1 1008.8 31.4
26/02:30am 25.1 31.1 24.2 95 0.6 CALM 0 0 0 0 1009.2 1008.9 31.4
26/02:15am 25.0 30.9 24.1 95 0.6 CALM 0 0 0 0 1009.3 1009.0 31.4
26/02:00am 25.0 29.8 24.1 95 0.6 W 6 7 3 4 1009.3 1009.0 31.4
26/01:56am 25.0 29.8 24.1 95 0.6 W 6 7 3 4 1009.4 1009.1 31.4
26/01:55am 25.0 29.8 24.1 95 0.6 WSW 6 7 3 4 1009.4 1009.1 31.4
26/01:43am 25.2 29.9 24.3 95 0.6 WSW 7 7 4 4 1009.6 1009.3 31.4
26/01:34am 25.2 30.4 24.2 94 0.7 SW 4 7 2 4 1009.6 1009.3 31.4
26/01:30am 25.3 30.9 24.3 94 0.7 SW 2 7 1 4 1009.6 1009.3 31.4
26/01:24am 25.4 31.5 24.4 94 0.7 CALM 0 0 0 0 1009.5 1009.2 31.4
26/01:17am 25.4 31.4 24.2 93 0.8 CALM 0 0 0 0 1009.6 1009.3 31.4
26/01:00am 25.4 31.5 24.5 95 0.6 CALM 0 0 0 0 1009.8 1009.5 31.4
26/12:30am 25.2 30.8 24.3 95 0.6 NE 2 4 1 2 1010.0 1009.7 31.4
26/12:19am 25.0 29.8 24.1 95 0.6 NE 6 7 3 4 1010.1 1009.8 31.4
26/12:01am 25.0 29.7 24.0 94 0.7 NE 6 9 3 5 1010.2 1009.9 31.4
26/12:00am 25.0 30.1 24.0 94 0.7 NNE 4 9 2 5 1010.2 1009.9 31.4
 
Date/Time
WST
Temp
°C
App
Temp
°C
Dew
Point
°C
Rel
Hum
%
Delta-T
°C
Wind Press
QNH
hPa
Press
MSL
hPa
Rain since
9am
mm
Dir  Spd
km/h
Gust
km/h
Spd
kts
Gust
kts
25/11:30pm 25.3 29.8 23.9 92 1.0 W 7 9 4 5 1010.3 1010.0 31.4
25/11:16pm 25.5 30.2 23.9 91 1.1 WSW 6 9 3 5 1010.6 1010.3 31.4
25/11:09pm 25.4 29.4 23.8 91 1.1 SW 9 11 5 6 1010.7 1010.4 31.4
25/11:00pm 25.5 29.5 23.7 90 1.2 SW 9 13 5 7 1010.8 1010.5 31.4
25/10:57pm 25.5 29.1 23.7 90 1.2 SW 11 13 6 7 1010.8 1010.5 31.4
25/10:30pm 25.2 29.2 23.8 92 1.0 WSW 9 11 5 6 1010.9 1010.6 31.4
25/10:17pm 25.2 29.9 24.0 93 0.8 W 6 7 3 4 1011.1 1010.8 31.4
25/10:00pm 25.1 29.9 24.1 94 0.7 W 6 7 3 4 1011.2 1010.9 31.4
25/09:57pm 25.0 29.7 24.0 94 0.7 W 6 9 3 5 1011.1 1010.8 31.4
25/09:30pm 25.3 30.4 24.6 96 0.5 SW 6 7 3 4 1011.2 1010.9 31.4
25/09:00pm 25.2 29.6 24.5 96 0.5 WNW 9 9 5 5 1011.4 1011.1 31.4
25/08:41pm 25.2 29.6 24.5 96 0.5 WNW 9 9 5 5 1011.2 1010.9 31.4
25/08:30pm 25.2 30.4 24.2 94 0.7 NW 4 11 2 6 1011.3 1011.0 31.4
25/08:27pm 25.3 30.9 24.3 94 0.7 N 2 11 1 6 1011.3 1011.0 31.4
25/08:00pm 25.8 30.9 24.6 93 0.8 ESE 6 9 3 5 1010.7 1010.4 31.4
25/07:30pm 25.9 31.8 24.7 93 0.8 E 2 6 1 3 1010.5 1010.2 31.4
25/07:00pm 26.0 30.9 24.4 91 1.1 S 6 7 3 4 1010.2 1009.9 31.4
25/06:30pm 25.9 31.7 24.5 92 1.0 WSW 2 6 1 3 1009.9 1009.6 31.4
25/06:00pm 26.1 30.4 24.3 90 1.2 SSW 9 11 5 6 1009.6 1009.3 31.4
25/05:30pm 26.5 31.3 24.5 89 1.4 W 7 9 4 5 1008.6 1008.3 31.4
25/05:00pm 27.1 32.0 24.7 87 1.7 SSE 7 9 4 5 1008.6 1008.3 31.4
25/04:30pm 27.2 32.6 24.5 85 1.9 SE 4 7 2 4 1009.0 1008.7 31.4
25/04:00pm 27.3 32.4 24.6 85 1.9 SSE 6 7 3 4 1009.1 1008.8 31.4
25/03:49pm 27.2 31.6 24.5 85 1.9 SSE 9 11 5 6 1008.8 1008.5 31.4
25/03:32pm 27.2 31.8 24.1 83 2.1 SSE 7 9 4 5 1008.8 1008.5 31.4
25/03:30pm 27.2 31.8 24.1 83 2.1 SSE 7 9 4 5 1008.8 1008.5 31.4
25/03:00pm 27.0 31.9 24.3 85 1.9 S 6 7 3 4 1009.1 1008.8 31.4
25/02:30pm 26.2 30.4 24.1 88 1.4 S 9 15 5 8 1009.0 1008.7 31.4
25/02:00pm 26.2 30.2 24.4 90 1.2 S 11 15 6 8 1008.9 1008.6 31.4
25/01:30pm 25.8 29.8 24.4 92 1.0 ESE 11 15 6 8 1009.4 1009.1 31.4
25/01:09pm 24.9 27.5 24.0 95 0.6 ENE 17 20 9 11 1010.3 1010.0 31.4
25/01:00pm 24.7 26.3 23.8 95 0.6 E 22 30 12 16 1010.1 1009.8 31.2
25/12:30pm 24.8 26.8 23.6 93 0.8 NNE 19 28 10 15 1010.0 1009.7 29.4
25/12:18pm 23.9 21.3 22.2 90 1.1 E 39 61 21 33 1010.6 1010.3 18.2
25/12:08pm 23.3 19.6 19.9 81 2.2 ESE 39 70 21 38 1009.9 1009.6 7.2
25/12:00pm 26.5 28.4 23.8 85 1.9 SE 20 48 11 26 1010.3 1010.0 6.2
25/11:59am 26.8 28.9 23.7 83 2.1 SE 19 48 10 26 1010.3 1010.0 6.2
25/11:37am 29.7 34.2 25.2 77 3.2 SE 11 28 6 15 1010.5 1010.2 0.6
25/11:30am 31.7 35.5 24.0 63 5.4 SSW 11 17 6 9 1010.3 1010.0 0.0
25/11:00am 31.5 35.2 24.6 67 4.8 S 13 17 7 9 1010.8 1010.5 0.0
25/10:30am 31.3 35.9 25.4 71 4.2 SSW 11 17 6 9 1011.4 1011.1 0.0
25/10:00am 30.7 35.8 24.6 70 4.3 SSE 6 13 3 7 1012.1 1011.8 0.0
25/09:30am 30.0 34.4 25.1 75 3.5 S 11 15 6 8 1012.1 1011.8 0.0
25/09:00am 29.4 33.9 25.2 78 3.0 SSE 11 15 6 8 1012.0 1011.7 6.2
25/08:30am 28.4 33.2 24.4 79 2.8 SSE 7 11 4 6 1012.3 1012.0 6.2
25/08:00am 27.8 31.6 24.0 80 2.6 SSE 11 15 6 8 1012.4 1012.1 6.2
25/07:30am 27.4 32.0 24.8 86 1.8 SSE 9 13 5 7 1012.1 1011.8 6.2
25/07:00am 27.0 32.3 25.0 89 1.4 ESE 6 9 3 5 1012.0 1011.7 6.2
25/06:30am 25.4 30.9 24.7 96 0.5 NNW 4 7 2 4 1011.7 1011.4 6.2
25/06:00am 24.9 30.9 24.2 96 0.5 CALM 0 0 0 0 1011.2 1010.9 6.2
25/05:30am 24.6 30.4 23.9 96 0.5 CALM 0 0 0 0 1011.0 1010.7 6.2
25/05:22am 24.6 30.1 24.1 97 0.3 WNW 2 6 1 3 1011.0 1010.7 6.2
25/05:00am 24.4 29.4 23.9 97 0.3 WNW 4 7 2 4 1010.9 1010.6 6.2
25/04:44am 24.6 30.5 24.1 97 0.3 CALM 0 0 0 0 1010.8 1010.5 6.2
25/04:30am 24.6 30.6 24.3 98 0.2 CALM 0 0 0 0 1010.6 1010.3 6.2
25/04:20am 24.7 30.4 24.4 98 0.2 NW 2 7 1 4 1010.7 1010.4 5.8
25/04:00am 24.5 27.1 24.0 97 0.3 N 17 20 9 11 1011.2 1010.9 5.4
25/03:39am 24.8 28.6 24.1 96 0.5 NNE 11 19 6 10 1011.2 1010.9 3.4
25/03:30am 25.0 28.9 24.3 96 0.5 NNE 11 13 6 7 1011.3 1011.0 3.2
25/03:00am 25.0 28.1 24.1 95 0.6 NNW 15 17 8 9 1010.6 1010.3 3.2
25/02:30am 25.7 30.5 24.1 91 1.1 SSW 6 11 3 6 1010.3 1010.0 3.0
25/02:00am 25.6 29.7 24.0 91 1.1 SW 9 15 5 8 1010.3 1010.0 3.0
25/01:30am 25.4 29.5 24.0 92 1.0 SSW 9 13 5 7 1010.2 1009.9 3.0
25/01:00am 25.1 29.2 23.9 93 0.8 W 9 15 5 8 1010.7 1010.4 3.0
25/12:30am 24.7 28.8 22.9 90 1.2 NW 6 11 3 6 1010.2 1009.9 3.0
25/12:00am 25.4 30.1 24.0 92 1.0 ENE 6 9 3 5 1010.3 1010.0 2.6
 
Date/Time
WST
Temp
°C
App
Temp
°C
Dew
Point
°C
Rel
Hum
%
Delta-T
°C
Wind Press
QNH
hPa
Press
MSL
hPa
Rain since
9am
mm
Dir  Spd
km/h
Gust
km/h
Spd
kts
Gust
kts
24/11:30pm 25.7 29.8 23.9 90 1.2 NE 9 15 5 8 1010.5 1010.2 1.4
24/11:21pm 25.7 29.7 23.7 89 1.4 ENE 9 13 5 7 1010.4 1010.1 0.6
24/11:00pm 26.1 29.2 23.6 86 1.7 ENE 13 19 7 10 1010.4 1010.1 0.0
24/10:30pm 26.9 28.7 23.2 80 2.5 ESE 19 24 10 13 1010.8 1010.5 0.0
24/10:00pm 27.4 30.1 22.8 76 3.1 ENE 13 17 7 9 1010.7 1010.4 0.0
24/09:30pm 27.3 29.9 23.3 79 2.7 NE 15 17 8 9 1010.4 1010.1 0.0
24/09:00pm 27.6 29.2 22.8 75 3.3 NE 19 22 10 12 1010.6 1010.3 0.0
24/08:30pm 28.1 29.1 22.1 70 4.0 NE 20 26 11 14 1010.6 1010.3 0.0
24/08:00pm 29.1 30.4 22.3 66 4.6 NE 19 30 10 16 1010.5 1010.2 0.0
24/07:30pm 29.3 32.5 24.4 75 3.4 NE 15 17 8 9 1009.4 1009.1 0.0
24/07:00pm 29.6 34.9 24.9 76 3.3 SSE 6 7 3 4 1008.7 1008.4 0.0
24/06:30pm 29.6 34.6 24.5 74 3.6 W 6 9 3 5 1008.5 1008.2 0.0
24/06:00pm 30.5 35.1 24.2 69 4.4 SSW 7 11 4 6 1008.0 1007.7 0.0
24/05:30pm 31.0 34.5 23.6 64 5.1 SSW 11 15 6 8 1007.8 1007.5 0.0
24/05:00pm 32.0 35.0 23.3 60 6.0 SW 13 26 7 14 1007.6 1007.3 0.0
24/04:30pm 33.1 36.3 23.7 57 6.6 SE 13 19 7 10 1006.8 1006.5 0.0
24/04:00pm 35.8 39.8 23.7 49 8.5 E 9 15 5 8 1006.5 1006.2 0.0
24/03:30pm 36.2 39.8 22.4 45 9.5 W 7 9 4 5 1006.4 1006.1 0.0
24/03:00pm 36.1 39.4 21.9 43 9.8 SSE 7 11 4 6 1006.4 1006.1 0.0
24/02:30pm 36.1 39.2 21.1 41 10.2 SE 6 11 3 6 1006.6 1006.3 0.0
24/02:00pm 36.3 40.2 22.5 45 9.6 SSE 6 9 3 5 1007.1 1006.8 0.0
24/01:30pm 35.8 38.1 22.0 44 9.5 S 13 20 7 11 1007.5 1007.2 0.0
24/01:00pm 35.8 39.2 23.4 48 8.7 SSE 11 17 6 9 1008.0 1007.7 0.0
24/12:30pm 35.7 39.3 23.0 48 8.8 E 9 17 5 9 1008.6 1008.3 0.0
24/12:00pm 35.8 39.4 23.7 49 8.5 E 11 17 6 9 1009.1 1008.8 0.0
24/11:30am 35.1 38.1 23.4 50 8.2 E 13 24 7 13 1009.6 1009.3 0.0
24/11:00am 35.2 37.9 22.9 49 8.5 SE 13 20 7 11 1010.1 1009.8 0.0
24/10:30am 34.6 36.6 23.0 51 8.0 E 17 24 9 13 1010.4 1010.1 0.0
24/10:00am 34.8 37.3 23.2 51 8.1 ESE 15 22 8 12 1010.8 1010.5 0.0
24/09:30am 34.3 36.6 22.7 50 8.0 ESE 15 26 8 14 1011.2 1010.9 0.0
24/09:00am 33.8 36.2 22.2 50 7.9 SE 13 28 7 15 1011.5 1011.2 0.0
24/08:30am 32.3 34.8 22.4 56 6.8 SE 13 15 7 8 1011.6 1011.3 0.0
24/08:00am 31.9 34.6 21.4 53 7.1 SSE 9 11 5 6 1011.3 1011.0 0.0
24/07:30am 31.4 35.5 23.0 61 5.8 SSE 6 9 3 5 1010.9 1010.6 0.0
24/07:00am 29.7 34.6 22.4 65 5.0 CALM 0 0 0 0 1010.6 1010.3 0.0
24/06:30am 28.5 33.1 22.5 70 4.1 S 2 6 1 3 1010.4 1010.1 0.0
24/06:00am 26.3 32.0 23.8 86 1.7 CALM 0 0 0 0 1010.1 1009.8 0.0
24/05:30am 25.3 30.7 23.2 88 1.4 CALM 0 0 0 0 1009.8 1009.5 0.0
24/05:00am 25.0 30.2 22.9 88 1.4 CALM 0 0 0 0 1009.7 1009.4 0.0
24/04:30am 25.3 30.7 23.2 88 1.4 CALM 0 0 0 0 1009.7 1009.4 0.0
24/04:00am 25.2 29.1 22.9 87 1.6 NNW 7 11 4 6 1009.4 1009.1 0.0
24/03:30am 25.3 30.7 23.2 88 1.4 CALM 0 0 0 0 1009.2 1008.9 0.0
24/03:00am 26.8 30.6 22.8 79 2.7 ESE 7 11 4 6 1009.1 1008.8 0.0
24/02:30am 26.4 30.2 23.5 84 2.0 E 9 11 5 6 1008.8 1008.5 0.0
24/02:00am 26.5 30.6 23.0 81 2.4 E 6 7 3 4 1008.6 1008.3 0.0
24/01:30am 26.1 29.9 22.8 82 2.2 WSW 7 9 4 5 1008.7 1008.4 0.0
24/01:00am 26.3 30.8 23.6 85 1.9 WSW 6 7 3 4 1008.9 1008.6 0.0
24/12:30am 27.3 31.7 23.5 80 2.6 SE 6 7 3 4 1009.1 1008.8 0.0
24/12:00am 25.9 31.5 23.6 87 1.6 CALM 0 0 0 0 1009.0 1008.7 0.0
 
Date/Time
WST
Temp
°C
App
Temp
°C
Dew
Point
°C
Rel
Hum
%
Delta-T
°C
Wind Press
QNH
hPa
Press
MSL
hPa
Rain since
9am
mm
Dir  Spd
km/h
Gust
km/h
Spd
kts
Gust
kts
23/11:30pm 26.6 32.0 23.3 82 2.3 CALM 0 0 0 0 1009.0 1008.7 0.0
23/11:00pm 26.2 30.3 22.9 82 2.2 S 6 7 3 4 1009.0 1008.7 0.0
23/10:30pm 25.5 30.9 23.2 87 1.6 CALM 0 0 0 0 1009.2 1008.9 0.0
23/10:00pm 26.0 31.2 22.9 83 2.1 CALM 0 0 0 0 1009.2 1008.9 0.0
23/09:30pm 25.7 29.6 22.6 83 2.1 E 6 6 3 3 1009.1 1008.8 0.0
23/09:00pm 26.7 31.3 22.5 78 2.8 S 2 6 1 3 1009.3 1009.0 0.0
23/08:30pm 27.2 32.5 23.0 78 2.9 CALM 0 0 0 0 1009.1 1008.8 0.0
23/08:00pm 27.5 32.6 23.3 78 2.9 NNE 2 6 1 3 1008.9 1008.6 0.0
23/07:30pm 27.5 32.4 23.1 77 3.0 S 2 9 1 5 1008.6 1008.3 0.0
23/07:00pm 29.6 33.7 22.3 65 5.0 W 4 6 2 3 1008.2 1007.9 0.0
23/06:30pm 30.7 34.7 22.8 62 5.4 W 6 6 3 3 1007.8 1007.5 0.0
23/06:00pm 31.7 35.3 22.1 56 6.5 NNW 6 7 3 4 1007.5 1007.2 0.0
23/05:30pm 34.3 36.8 21.0 45 9.0 NNW 9 9 5 5 1007.2 1006.9 0.0
23/05:00pm 36.0 39.4 19.4 37 11.0 CALM 0 0 0 0 1007.1 1006.8 0.0
23/04:30pm 37.6 40.2 17.6 31 13.0 CALM 0 0 0 0 1007.0 1006.7 0.0
23/04:00pm 37.6 37.6 14.2 25 14.6 SSE 7 11 4 6 1006.9 1006.6 0.0
23/03:30pm 37.7 38.0 16.1 28 13.8 SE 9 13 5 7 1006.9 1006.6 0.0
23/03:00pm 37.7 36.3 12.3 22 15.4 SSE 11 17 6 9 1007.1 1006.8 0.0
23/02:30pm 37.9 37.5 15.1 26 14.4 SSE 11 20 6 11 1007.3 1007.0 0.0
23/02:00pm 37.7 36.6 13.0 23 15.1 SSE 11 20 6 11 1007.3 1007.0 0.0
23/01:30pm 37.7 36.2 13.0 23 15.1 SSE 13 22 7 12 1007.6 1007.3 0.0

Other Formats:

Comma delimited format used in spreadsheet applications
http://www.bom.gov.au/fwo/IDW60801/IDW60801.94216.axf

JavaScript Object Notation format (JSON) in row-major order
http://www.bom.gov.au/fwo/IDW60801/IDW60801.94216.json